Time;durP1;ratioP1;P1;durP2;ratioP2;P2;SDS_P1;SDS_P2;PMS_P1;PMS_P2;Temp;Humidity;BMP_temperature;BMP_pressure;BME280_temperature;BME280_humidity;BME280_pressure;Samples;Min_cycle;Max_cycle;Signal;HPM_P1;HPM_P2
2021/03/09 00:00:55;;;;;;;14.17;7.03;;;;;;;;;;5091958;28;20891;-72
2021/03/09 00:03:21;;;;;;;14.40;8.37;;;;;;;;;;5093417;28;20470;-72
2021/03/09 00:05:47;;;;;;;13.80;8.07;;;;;;;;;;5091716;28;20433;-73
2021/03/09 00:08:13;;;;;;;10.60;7.30;;;;;;;;;;5093294;28;20892;-72
2021/03/09 00:10:40;;;;;;;13.00;9.07;;;;;;;;;;5092544;28;20504;-73
2021/03/09 00:13:06;;;;;;;10.47;6.93;;;;;;;;;;5093301;28;20527;-72
2021/03/09 00:15:32;;;;;;;11.60;7.57;;;;;;;;;;5092107;28;20561;-72
2021/03/09 00:17:58;;;;;;;11.00;7.30;;;;;;;;;;5093411;28;20485;-72
2021/03/09 00:20:24;;;;;;;11.37;7.57;;;;;;;;;;5092153;28;20902;-72
2021/03/09 00:22:50;;;;;;;14.87;8.83;;;;;;;;;;5093107;28;20417;-72
2021/03/09 00:25:16;;;;;;;12.60;8.10;;;;;;;;;;5092574;28;20413;-75
2021/03/09 00:27:42;;;;;;;12.47;8.10;;;;;;;;;;5082147;28;20427;-72
2021/03/09 00:30:08;;;;;;;11.27;7.70;;;;;;;;;;5072714;28;20415;-71
2021/03/09 00:32:34;;;;;;;10.53;7.67;;;;;;;;;;5090620;28;20429;-71
2021/03/09 00:35:00;;;;;;;12.80;7.93;;;;;;;;;;5092437;28;20397;-72
2021/03/09 00:37:26;;;;;;;10.23;7.10;;;;;;;;;;5091613;28;20799;-71
2021/03/09 00:39:52;;;;;;;14.53;9.07;;;;;;;;;;5092770;28;20411;-71
2021/03/09 00:42:18;;;;;;;10.43;7.20;;;;;;;;;;5091388;28;20983;-71
2021/03/09 00:44:44;;;;;;;16.00;8.80;;;;;;;;;;5091245;28;20531;-72
2021/03/09 00:47:10;;;;;;;12.53;7.33;;;;;;;;;;5090822;28;20469;-71
2021/03/09 00:49:36;;;;;;;13.00;8.10;;;;;;;;;;5092380;28;20448;-71
2021/03/09 00:52:03;;;;;;;11.00;8.20;;;;;;;;;;5091612;28;20517;-71
2021/03/09 00:54:29;;;;;;;12.63;8.60;;;;;;;;;;5092364;28;20417;-71
2021/03/09 00:56:55;;;;;;;14.47;9.17;;;;;;;;;;5091062;28;20439;-71
2021/03/09 00:59:21;;;;;;;16.63;9.23;;;;;;;;;;5092393;28;20509;-71
2021/03/09 01:01:47;;;;;;;21.30;7.40;;;;;;;;;;5091822;28;20513;-71
2021/03/09 01:04:13;;;;;;;18.10;8.87;;;;;;;;;;5092223;28;20552;-71
2021/03/09 01:06:39;;;;;;;14.67;8.67;;;;;;;;;;5091712;28;20452;-72
2021/03/09 01:09:05;;;;;;;13.90;9.27;;;;;;;;;;5092347;28;20517;-73
2021/03/09 01:11:31;;;;;;;10.30;7.70;;;;;;;;;;5073630;28;20471;-73
2021/03/09 01:13:57;;;;;;;15.33;8.93;;;;;;;;;;5092344;28;20404;-71
2021/03/09 01:16:23;;;;;;;13.80;8.07;;;;;;;;;;5091422;28;20457;-71
2021/03/09 01:18:49;;;;;;;12.87;7.67;;;;;;;;;;5091197;28;20447;-71
2021/03/09 01:21:15;;;;;;;18.70;8.50;;;;;;;;;;5091278;28;20792;-71
2021/03/09 01:23:41;;;;;;;15.20;8.47;;;;;;;;;;5073942;28;20446;-71
2021/03/09 01:26:07;;;;;;;15.23;8.50;;;;;;;;;;5091508;28;20447;-71
2021/03/09 01:28:33;;;;;;;18.60;9.60;;;;;;;;;;5091955;28;20437;-71
2021/03/09 01:30:59;;;;;;;14.60;8.90;;;;;;;;;;5088903;28;20456;-71
2021/03/09 01:33:25;;;;;;;17.77;8.87;;;;;;;;;;5071824;28;20513;-71
2021/03/09 01:35:51;;;;;;;13.80;9.07;;;;;;;;;;5073528;28;20397;-71
2021/03/09 01:38:17;;;;;;;15.23;8.87;;;;;;;;;;5092088;28;20463;-71
2021/03/09 01:40:43;;;;;;;14.60;10.20;;;;;;;;;;5090868;28;20445;-72
2021/03/09 01:43:09;;;;;;;16.87;9.43;;;;;;;;;;5091991;28;20444;-71
2021/03/09 01:45:35;;;;;;;15.07;9.20;;;;;;;;;;5073738;28;20409;-71
2021/03/09 01:48:03;;;;;;;13.90;9.33;;;;;;;;;;5093673;28;20427;-71
2021/03/09 01:50:30;;;;;;;16.53;9.27;;;;;;;;;;5095379;28;20497;-71
2021/03/09 01:52:56;;;;;;;14.43;8.83;;;;;;;;;;5076890;28;21009;-71
2021/03/09 01:55:22;;;;;;;17.13;8.67;;;;;;;;;;5095319;28;20431;-71
2021/03/09 01:57:49;;;;;;;14.03;9.20;;;;;;;;;;5077483;28;20429;-71
2021/03/09 02:00:16;;;;;;;13.77;8.43;;;;;;;;;;5073674;28;20431;-71
2021/03/09 02:02:42;;;;;;;12.53;9.63;;;;;;;;;;5073610;28;20434;-71
2021/03/09 02:05:09;;;;;;;13.60;8.70;;;;;;;;;;5074889;28;20408;-71
2021/03/09 02:07:35;;;;;;;16.00;8.90;;;;;;;;;;5089701;28;20437;-71
2021/03/09 02:10:01;;;;;;;12.37;8.33;;;;;;;;;;5095454;28;20528;-71
2021/03/09 02:12:34;;;;;;;17.63;8.50;;;;;;;;;;5094075;28;20434;-71
2021/03/09 02:15:08;;;;;;;21.40;8.30;;;;;;;;;;5095170;28;20386;-72
2021/03/09 02:17:37;;;;;;;15.60;8.67;;;;;;;;;;5093952;28;20519;-71
2021/03/09 02:20:22;;;;;;;12.77;8.20;;;;;;;;;;5094962;28;20429;-71
2021/03/09 02:22:54;;;;;;;14.63;8.57;;;;;;;;;;5093795;28;20431;-71
2021/03/09 02:25:32;;;;;;;17.47;9.47;;;;;;;;;;5094118;28;20423;-72
2021/03/09 02:28:04;;;;;;;15.70;8.97;;;;;;;;;;5081004;28;20525;-72
2021/03/09 02:30:38;;;;;;;17.10;10.37;;;;;;;;;;5074980;28;20418;-72
2021/03/09 02:33:23;;;;;;;13.10;9.30;;;;;;;;;;5093492;28;20456;-72
2021/03/09 02:35:54;;;;;;;14.33;9.07;;;;;;;;;;5093331;28;20426;-72
2021/03/09 02:38:21;;;;;;;17.37;10.33;;;;;;;;;;5091687;28;20430;-72
2021/03/09 02:40:50;;;;;;;17.43;10.40;;;;;;;;;;5095266;28;20552;-72
2021/03/09 02:43:17;;;;;;;16.13;10.23;;;;;;;;;;5093928;28;20454;-72
2021/03/09 02:45:45;;;;;;;20.87;10.60;;;;;;;;;;5095075;28;20405;-72
2021/03/09 02:48:12;;;;;;;14.50;8.17;;;;;;;;;;5093620;28;20431;-71
2021/03/09 02:50:38;;;;;;;17.40;9.57;;;;;;;;;;5094494;28;20428;-71
2021/03/09 02:53:07;;;;;;;18.40;10.47;;;;;;;;;;5093457;28;20430;-71
2021/03/09 02:55:33;;;;;;;22.20;10.87;;;;;;;;;;5094288;28;20402;-71
2021/03/09 02:58:00;;;;;;;17.23;9.77;;;;;;;;;;5091382;28;20749;-71
2021/03/09 03:00:26;;;;;;;17.50;9.53;;;;;;;;;;5094027;28;20430;-73
2021/03/09 03:02:53;;;;;;;15.43;9.80;;;;;;;;;;5093016;28;20429;-71
2021/03/09 03:05:19;;;;;;;10.93;8.03;;;;;;;;;;5094436;28;20481;-71
2021/03/09 03:07:46;;;;;;;13.00;8.30;;;;;;;;;;5093036;28;20430;-72
2021/03/09 03:10:17;;;;;;;13.90;7.80;;;;;;;;;;5093894;28;20889;-71
2021/03/09 03:12:43;;;;;;;15.67;8.10;;;;;;;;;;5093361;28;20433;-72
2021/03/09 03:15:11;;;;;;;13.20;7.73;;;;;;;;;;5094470;28;20400;-72
2021/03/09 03:17:38;;;;;;;11.73;7.10;;;;;;;;;;5075218;28;20808;-71
2021/03/09 03:20:04;;;;;;;12.47;8.60;;;;;;;;;;5094208;28;20476;-71
2021/03/09 03:22:31;;;;;;;13.40;7.10;;;;;;;;;;5092062;28;20454;-70
2021/03/09 03:24:58;;;;;;;17.23;7.87;;;;;;;;;;5094230;28;20462;-71
2021/03/09 03:27:24;;;;;;;11.63;8.00;;;;;;;;;;5082850;28;20438;-71
2021/03/09 03:29:50;;;;;;;12.47;8.43;;;;;;;;;;5093869;28;20457;-71
2021/03/09 03:32:16;;;;;;;14.53;8.20;;;;;;;;;;5092904;28;20424;-71
2021/03/09 03:34:44;;;;;;;13.23;8.10;;;;;;;;;;5093943;28;20536;-72
2021/03/09 03:37:10;;;;;;;13.37;7.93;;;;;;;;;;5092909;28;20429;-70
2021/03/09 03:39:37;;;;;;;13.63;8.43;;;;;;;;;;5093854;28;20508;-71
2021/03/09 03:42:03;;;;;;;14.87;9.50;;;;;;;;;;5091583;28;20913;-70
2021/03/09 03:44:29;;;;;;;12.23;8.20;;;;;;;;;;5094065;28;20954;-73
2021/03/09 03:46:55;;;;;;;14.17;8.33;;;;;;;;;;5092465;28;20397;-72
2021/03/09 03:49:21;;;;;;;21.80;8.90;;;;;;;;;;5093904;28;20506;-72
2021/03/09 03:51:50;;;;;;;14.87;9.67;;;;;;;;;;5093697;28;20410;-73
2021/03/09 03:54:16;;;;;;;13.87;9.23;;;;;;;;;;5093397;28;20423;-71
2021/03/09 03:57:05;;;;;;;12.27;7.40;;;;;;;;;;5093685;28;20467;-71
2021/03/09 03:59:33;;;;;;;12.97;7.77;;;;;;;;;;5079788;28;20485;-73
2021/03/09 04:02:04;;;;;;;15.33;7.90;;;;;;;;;;5093768;28;20401;-71
2021/03/09 04:04:31;;;;;;;12.47;7.83;;;;;;;;;;5092679;28;20454;-71
2021/03/09 04:06:57;;;;;;;13.73;8.57;;;;;;;;;;5093435;28;20796;-71
2021/03/09 04:09:24;;;;;;;13.07;7.90;;;;;;;;;;5090823;28;20465;-71
2021/03/09 04:11:51;;;;;;;10.37;7.90;;;;;;;;;;5091843;28;20434;-71
2021/03/09 04:14:17;;;;;;;14.30;8.20;;;;;;;;;;5092052;28;20428;-71
2021/03/09 04:16:44;;;;;;;16.60;8.80;;;;;;;;;;5093221;28;20403;-71
2021/03/09 04:19:13;;;;;;;17.63;8.13;;;;;;;;;;5091977;28;20540;-71
2021/03/09 04:21:39;;;;;;;11.93;7.77;;;;;;;;;;5093183;28;20401;-71
2021/03/09 04:24:06;;;;;;;9.47;7.80;;;;;;;;;;5092009;28;20466;-71
2021/03/09 04:26:33;;;;;;;13.17;8.50;;;;;;;;;;5089752;28;20438;-72
2021/03/09 04:29:01;;;;;;;13.17;8.67;;;;;;;;;;5090978;28;20478;-71
2021/03/09 04:31:27;;;;;;;17.23;8.80;;;;;;;;;;5093355;28;20490;-71
2021/03/09 04:33:54;;;;;;;14.00;9.50;;;;;;;;;;5092039;28;20580;-71
2021/03/09 04:36:20;;;;;;;19.37;9.43;;;;;;;;;;5093160;28;20403;-71
2021/03/09 04:38:47;;;;;;;14.80;7.70;;;;;;;;;;5074125;28;20449;-71
2021/03/09 04:41:13;;;;;;;18.50;9.90;;;;;;;;;;5092851;28;20436;-70
2021/03/09 04:43:39;;;;;;;14.27;8.07;;;;;;;;;;5091881;28;20965;-71
2021/03/09 04:46:05;;;;;;;12.43;8.53;;;;;;;;;;5093065;28;20848;-71
2021/03/09 04:48:31;;;;;;;14.20;8.17;;;;;;;;;;5091763;28;20434;-71
2021/03/09 04:51:01;;;;;;;15.83;7.93;;;;;;;;;;5092894;28;20807;-70
2021/03/09 04:53:28;;;;;;;14.63;9.17;;;;;;;;;;5091911;28;20431;-71
2021/03/09 04:55:56;;;;;;;14.93;8.90;;;;;;;;;;5075066;28;20445;-71
2021/03/09 04:58:22;;;;;;;12.80;8.77;;;;;;;;;;5091199;28;20434;-70
2021/03/09 05:00:48;;;;;;;11.87;8.17;;;;;;;;;;5092109;28;20811;-71
2021/03/09 05:03:14;;;;;;;16.07;8.27;;;;;;;;;;5091949;28;20457;-71
2021/03/09 05:05:40;;;;;;;13.83;9.87;;;;;;;;;;5093047;28;20510;-71
2021/03/09 05:08:06;;;;;;;16.77;8.90;;;;;;;;;;5092106;28;20434;-71
2021/03/09 05:10:32;;;;;;;20.23;9.30;;;;;;;;;;5092750;28;20443;-72
2021/03/09 05:12:58;;;;;;;12.30;8.03;;;;;;;;;;5090853;28;20433;-71
2021/03/09 05:15:24;;;;;;;12.90;9.37;;;;;;;;;;5093061;28;20889;-72
2021/03/09 05:17:50;;;;;;;20.43;9.37;;;;;;;;;;5092378;28;20470;-70
2021/03/09 05:20:18;;;;;;;13.83;9.20;;;;;;;;;;5092363;28;20427;-72
2021/03/09 05:22:44;;;;;;;14.57;8.30;;;;;;;;;;5095188;28;20431;-71
2021/03/09 05:25:11;;;;;;;13.80;7.63;;;;;;;;;;5095862;28;20454;-71
2021/03/09 05:27:38;;;;;;;13.93;8.93;;;;;;;;;;5076910;28;20414;-71
2021/03/09 05:30:05;;;;;;;14.13;8.60;;;;;;;;;;5094084;28;20851;-72
2021/03/09 05:32:31;;;;;;;16.07;10.77;;;;;;;;;;5094573;28;20429;-71
2021/03/09 05:34:57;;;;;;;24.23;10.73;;;;;;;;;;5095384;28;20460;-73
2021/03/09 05:37:23;;;;;;;18.20;11.77;;;;;;;;;;5096462;28;20410;-72
2021/03/09 05:39:50;;;;;;;19.97;10.93;;;;;;;;;;5094343;28;20526;-72
2021/03/09 05:42:16;;;;;;;15.87;10.73;;;;;;;;;;5096712;28;20411;-72
2021/03/09 05:44:42;;;;;;;14.70;9.20;;;;;;;;;;5095288;28;20455;-71
2021/03/09 05:47:08;;;;;;;16.37;9.03;;;;;;;;;;5096572;28;20402;-72
2021/03/09 05:49:34;;;;;;;20.90;9.80;;;;;;;;;;5095182;28;20452;-72
2021/03/09 05:52:01;;;;;;;18.53;10.30;;;;;;;;;;5094181;28;20518;-72
2021/03/09 05:54:27;;;;;;;13.90;8.77;;;;;;;;;;5094909;28;20438;-72
2021/03/09 05:56:53;;;;;;;16.57;9.90;;;;;;;;;;5095995;28;20407;-73
2021/03/09 05:59:19;;;;;;;14.23;9.33;;;;;;;;;;5094907;28;21000;-72
2021/03/09 06:01:45;;;;;;;22.40;11.00;;;;;;;;;;5095890;28;20959;-72
2021/03/09 06:04:11;;;;;;;16.50;11.10;;;;;;;;;;5094664;28;20464;-73
2021/03/09 06:06:37;;;;;;;15.83;10.40;;;;;;;;;;5077676;28;20407;-72
2021/03/09 06:09:23;;;;;;;16.70;11.10;;;;;;;;;;5091661;28;20512;-73
2021/03/09 06:12:25;;;;;;;13.60;9.07;;;;;;;;;;5084106;28;20420;-72
2021/03/09 06:15:00;;;;;;;22.90;10.77;;;;;;;;;;4993653;28;20845;-72
2021/03/09 06:17:30;;;;;;;23.80;14.67;;;;;;;;;;5081799;28;20513;-72
2021/03/09 06:19:57;;;;;;;26.13;16.40;;;;;;;;;;5094593;28;20783;-72
2021/03/09 06:22:43;;;;;;;19.57;11.53;;;;;;;;;;5095398;28;20405;-72
2021/03/09 06:25:11;;;;;;;19.73;10.93;;;;;;;;;;5094453;28;20437;-73
2021/03/09 06:27:37;;;;;;;21.83;12.73;;;;;;;;;;5095280;28;20439;-72
2021/03/09 06:30:04;;;;;;;20.50;10.67;;;;;;;;;;5094203;28;20453;-73
2021/03/09 06:32:38;;;;;;;21.43;10.20;;;;;;;;;;5095383;28;20433;-72
2021/03/09 06:35:05;;;;;;;21.03;10.30;;;;;;;;;;5094295;28;20427;-72
2021/03/09 06:37:31;;;;;;;18.63;10.77;;;;;;;;;;5095281;28;20834;-72
2021/03/09 06:40:02;;;;;;;22.27;10.17;;;;;;;;;;5094380;28;20447;-72
2021/03/09 06:42:32;;;;;;;23.40;13.50;;;;;;;;;;5095487;28;20406;-72
2021/03/09 06:44:58;;;;;;;17.47;11.13;;;;;;;;;;5093867;28;20576;-72
2021/03/09 06:47:37;;;;;;;25.50;13.33;;;;;;;;;;5094925;28;20461;-72
2021/03/09 06:50:05;;;;;;;25.77;12.87;;;;;;;;;;5094204;28;20923;-72
2021/03/09 06:52:31;;;;;;;27.30;15.30;;;;;;;;;;5095272;28;20411;-72
2021/03/09 06:54:57;;;;;;;20.13;12.07;;;;;;;;;;5093920;28;20436;-72
2021/03/09 06:57:24;;;;;;;22.60;12.70;;;;;;;;;;5095289;28;20431;-72
2021/03/09 06:59:51;;;;;;;21.30;12.90;;;;;;;;;;5094369;28;20456;-72
2021/03/09 07:02:24;;;;;;;28.60;13.40;;;;;;;;;;5094388;28;20488;-71
2021/03/09 07:04:54;;;;;;;21.23;12.40;;;;;;;;;;5082180;28;20456;-72
2021/03/09 07:07:29;;;;;;;20.07;11.40;;;;;;;;;;5095265;28;20404;-72
2021/03/09 07:10:00;;;;;;;23.17;13.03;;;;;;;;;;5093469;28;20472;-72
2021/03/09 07:12:27;;;;;;;22.67;13.47;;;;;;;;;;5094978;28;20446;-72
2021/03/09 07:14:53;;;;;;;20.83;12.83;;;;;;;;;;5093605;28;20460;-72
2021/03/09 07:17:20;;;;;;;26.00;13.00;;;;;;;;;;5094488;28;20404;-72
2021/03/09 07:19:46;;;;;;;25.63;14.40;;;;;;;;;;5091223;28;20455;-72
2021/03/09 07:22:14;;;;;;;19.67;11.80;;;;;;;;;;5094435;28;20458;-72
2021/03/09 07:24:43;;;;;;;24.00;12.90;;;;;;;;;;5093420;28;20466;-72
2021/03/09 07:27:11;;;;;;;20.97;12.67;;;;;;;;;;5094384;28;20402;-72
2021/03/09 07:29:39;;;;;;;28.70;13.90;;;;;;;;;;5093882;28;20470;-72
2021/03/09 07:32:06;;;;;;;23.97;12.50;;;;;;;;;;5094066;28;20395;-72
2021/03/09 07:34:34;;;;;;;22.30;13.20;;;;;;;;;;5093505;28;20425;-72
2021/03/09 07:37:00;;;;;;;20.07;11.67;;;;;;;;;;5094268;28;20940;-72
2021/03/09 07:39:27;;;;;;;27.00;12.67;;;;;;;;;;5093004;28;20450;-72
2021/03/09 07:41:53;;;;;;;19.67;12.70;;;;;;;;;;5093960;28;20402;-72
2021/03/09 07:44:19;;;;;;;19.03;12.43;;;;;;;;;;5092747;28;20450;-73
2021/03/09 07:46:45;;;;;;;20.53;14.00;;;;;;;;;;5093820;28;20393;-72
2021/03/09 07:49:13;;;;;;;25.50;14.50;;;;;;;;;;5093286;28;20419;-73
2021/03/09 07:51:57;;;;;;;28.67;14.83;;;;;;;;;;5087715;28;20417;-72
2021/03/09 07:54:23;;;;;;;24.50;14.17;;;;;;;;;;5074146;28;20403;-72
2021/03/09 07:57:20;;;;;;;24.60;13.93;;;;;;;;;;5093372;28;20405;-72
2021/03/09 07:59:55;;;;;;;22.73;12.93;;;;;;;;;;5075033;28;20457;-73
2021/03/09 08:02:39;;;;;;;33.20;14.43;;;;;;;;;;5086666;28;20511;-72
2021/03/09 08:05:07;;;;;;;27.33;15.77;;;;;;;;;;5084105;28;20524;-73
2021/03/09 08:07:50;;;;;;;23.63;13.80;;;;;;;;;;5073364;28;20811;-73
2021/03/09 08:10:40;;;;;;;24.23;14.20;;;;;;;;;;5077077;28;20462;-72
2021/03/09 08:13:06;;;;;;;24.07;13.70;;;;;;;;;;5079375;28;20415;-72
2021/03/09 08:15:32;;;;;;;21.50;13.27;;;;;;;;;;5088631;28;20990;-73
2021/03/09 08:18:19;;;;;;;22.80;14.00;;;;;;;;;;5090922;28;20445;-73
2021/03/09 08:20:52;;;;;;;30.50;13.33;;;;;;;;;;5081317;28;20521;-72
2021/03/09 08:23:33;;;;;;;27.50;14.80;;;;;;;;;;5085815;28;20443;-73
2021/03/09 08:26:04;;;;;;;26.60;14.13;;;;;;;;;;5091935;28;20500;-72
2021/03/09 08:28:37;;;;;;;22.63;14.00;;;;;;;;;;5090225;28;20427;-74
2021/03/09 08:31:26;;;;;;;23.43;12.93;;;;;;;;;;5080551;28;20900;-73
2021/03/09 08:33:53;;;;;;;28.03;13.93;;;;;;;;;;5078708;28;20628;-73
2021/03/09 08:36:28;;;;;;;23.50;13.63;;;;;;;;;;5086173;28;20433;-73
2021/03/09 08:39:11;;;;;;;20.33;13.50;;;;;;;;;;5073364;28;20424;-73
2021/03/09 08:41:41;;;;;;;21.60;13.30;;;;;;;;;;5073864;28;20799;-74
2021/03/09 08:44:13;;;;;;;27.15;15.25;;;;;;;;;;5061538;28;20516;-75
2021/03/09 08:46:52;;;;;;;24.07;14.80;;;;;;;;;;5089752;28;20177;-76
2021/03/09 08:49:37;;;;;;;21.57;12.67;;;;;;;;;;5063009;28;20446;-80
2021/03/09 08:52:07;;;;;;;25.27;14.20;;;;;;;;;;5081504;28;20499;-80
2021/03/09 08:54:36;;;;;;;18.03;12.43;;;;;;;;;;5079151;28;20423;-76
2021/03/09 08:57:04;;;;;;;20.10;13.47;;;;;;;;;;5096902;28;20413;-75
2021/03/09 08:59:31;;;;;;;23.50;12.63;;;;;;;;;;5097353;28;20473;-75
2021/03/09 09:02:05;;;;;;;22.80;12.90;;;;;;;;;;5079734;28;21026;-76
2021/03/09 09:04:31;;;;;;;27.60;13.20;;;;;;;;;;5078806;28;20521;-74
2021/03/09 09:06:57;;;;;;;21.00;13.30;;;;;;;;;;5081376;28;20472;-73
2021/03/09 09:09:30;;;;;;;23.93;14.30;;;;;;;;;;5088630;28;20452;-73
2021/03/09 09:11:57;;;;;;;28.93;14.50;;;;;;;;;;5098802;28;20454;-80
2021/03/09 09:14:23;;;;;;;22.57;14.50;;;;;;;;;;5093906;28;20434;-76
2021/03/09 09:16:49;;;;;;;30.90;14.10;;;;;;;;;;5104353;28;20493;-79
2021/03/09 09:19:15;;;;;;;19.17;12.70;;;;;;;;;;5090839;28;20431;-77
2021/03/09 09:21:45;;;;;;;19.00;13.00;;;;;;;;;;5100532;28;20854;-77
2021/03/09 09:24:18;;;;;;;20.17;13.67;;;;;;;;;;5075778;28;20540;-81
2021/03/09 09:26:44;;;;;;;21.80;13.37;;;;;;;;;;5100096;28;20420;-76
2021/03/09 09:29:10;;;;;;;21.13;12.70;;;;;;;;;;5099451;28;20428;-78
2021/03/09 09:31:36;;;;;;;22.23;12.90;;;;;;;;;;5078921;28;20809;-72
2021/03/09 09:34:07;;;;;;;24.42;14.52;;;;;;;;;;5091233;28;20417;-78
2021/03/09 09:36:33;;;;;;;21.90;12.77;;;;;;;;;;5096228;28;20188;-75
2021/03/09 09:38:59;;;;;;;19.03;11.73;;;;;;;;;;5097408;28;20428;-76
2021/03/09 09:41:26;;;;;;;19.50;12.67;;;;;;;;;;5096858;28;20504;-76
2021/03/09 09:43:53;;;;;;;19.93;12.90;;;;;;;;;;5078844;28;20444;-73
2021/03/09 09:46:23;;;;;;;28.13;13.90;;;;;;;;;;5096123;28;20430;-73
2021/03/09 09:48:49;;;;;;;20.27;13.23;;;;;;;;;;5095787;28;20440;-74
2021/03/09 09:51:16;;;;;;;15.80;11.37;;;;;;;;;;5093799;28;20425;-74
2021/03/09 09:53:47;;;;;;;24.63;13.07;;;;;;;;;;5095639;28;20415;-72
2021/03/09 09:56:14;;;;;;;21.03;12.13;;;;;;;;;;5093569;28;20430;-74
2021/03/09 09:58:46;;;;;;;23.93;13.57;;;;;;;;;;5077771;28;20428;-80
2021/03/09 10:01:14;;;;;;;19.55;12.55;;;;;;;;;;5082670;28;20417;-76
2021/03/09 10:03:55;;;;;;;24.53;13.90;;;;;;;;;;5091262;28;20211;-73
2021/03/09 10:06:23;;;;;;;19.00;12.00;;;;;;;;;;5095275;28;20420;-77
2021/03/09 10:08:50;;;;;;;19.40;12.70;;;;;;;;;;5096552;28;21017;-75
2021/03/09 10:11:16;;;;;;;22.37;10.70;;;;;;;;;;5085276;28;20420;-74
2021/03/09 10:13:42;;;;;;;19.93;12.10;;;;;;;;;;5087195;28;20401;-75
2021/03/09 10:16:08;;;;;;;15.17;10.17;;;;;;;;;;5087953;28;20518;-76
2021/03/09 10:18:35;;;;;;;12.67;9.23;;;;;;;;;;5094056;28;20469;-76
2021/03/09 10:21:03;;;;;;;16.77;10.30;;;;;;;;;;5087750;28;20531;-75
2021/03/09 10:23:29;;;;;;;19.60;10.97;;;;;;;;;;5097832;28;20953;-75
2021/03/09 10:25:59;;;;;;;20.00;10.70;;;;;;;;;;5093952;28;20440;-74
2021/03/09 10:28:29;;;;;;;15.27;10.20;;;;;;;;;;5095926;28;20488;-74
2021/03/09 10:30:55;;;;;;;15.83;11.47;;;;;;;;;;5091623;28;20433;-77
2021/03/09 10:33:21;;;;;;;16.80;11.53;;;;;;;;;;5076754;28;20427;-75
2021/03/09 10:36:03;;;;;;;14.00;10.03;;;;;;;;;;5094759;28;20431;-74
2021/03/09 10:38:30;;;;;;;20.00;11.70;;;;;;;;;;5088861;28;20481;-76
2021/03/09 10:40:56;;;;;;;14.23;10.70;;;;;;;;;;5093644;28;20280;-73
2021/03/09 10:43:41;;;;;;;18.75;10.27;;;;;;;;;;5067574;28;20531;-77
2021/03/09 10:46:07;;;;;;;14.60;11.00;;;;;;;;;;5088555;28;20762;-74
2021/03/09 10:48:33;;;;;;;17.55;11.30;;;;;;;;;;5096272;28;20470;-77
2021/03/09 10:50:59;;;;;;;20.53;11.13;;;;;;;;;;5093297;28;20195;-76
2021/03/09 10:53:25;;;;;;;14.73;9.93;;;;;;;;;;5093886;28;20426;-75
2021/03/09 10:55:51;;;;;;;13.73;10.03;;;;;;;;;;5090200;28;20428;-76
2021/03/09 10:58:17;;;;;;;12.73;8.37;;;;;;;;;;5090490;28;20499;-73
2021/03/09 11:00:43;;;;;;;16.63;9.87;;;;;;;;;;5088506;28;20557;-80
2021/03/09 11:03:09;;;;;;;14.90;8.83;;;;;;;;;;5080697;28;20438;-76
2021/03/09 11:05:35;;;;;;;15.50;8.77;;;;;;;;;;5089541;28;20451;-74
2021/03/09 11:08:01;;;;;;;13.27;9.10;;;;;;;;;;5089691;28;20424;-75
2021/03/09 11:10:27;;;;;;;15.73;8.30;;;;;;;;;;5093592;28;20480;-77
2021/03/09 11:12:53;;;;;;;12.97;8.20;;;;;;;;;;5092580;28;20418;-73
2021/03/09 11:15:19;;;;;;;12.43;9.00;;;;;;;;;;5089374;28;20514;-76
2021/03/09 11:17:46;;;;;;;15.40;8.53;;;;;;;;;;5088184;28;20411;-76
2021/03/09 11:20:12;;;;;;;14.63;9.67;;;;;;;;;;5071127;28;20485;-76
2021/03/09 11:22:38;;;;;;;15.90;8.30;;;;;;;;;;5091690;28;20517;-76
2021/03/09 11:25:05;;;;;;;14.50;8.83;;;;;;;;;;5068616;28;20938;-77
2021/03/09 11:27:31;;;;;;;14.27;9.20;;;;;;;;;;5091965;28;20442;-76
2021/03/09 11:29:57;;;;;;;15.40;10.07;;;;;;;;;;5092231;28;20449;-77
2021/03/09 11:32:23;;;;;;;15.90;9.33;;;;;;;;;;5091995;28;20437;-77
2021/03/09 11:34:49;;;;;;;13.57;8.37;;;;;;;;;;5092710;28;20552;-77
2021/03/09 11:37:15;;;;;;;12.93;8.83;;;;;;;;;;5089437;28;20453;-76
2021/03/09 11:39:47;;;;;;;12.70;8.27;;;;;;;;;;5063724;28;20542;-76
2021/03/09 11:42:13;;;;;;;12.10;8.57;;;;;;;;;;5045959;28;20421;-76
2021/03/09 11:44:40;;;;;;;13.00;8.30;;;;;;;;;;5045870;28;20467;-76
2021/03/09 11:47:06;;;;;;;13.33;9.27;;;;;;;;;;5047619;28;20954;-76
2021/03/09 11:49:32;;;;;;;14.60;8.50;;;;;;;;;;5047965;28;20435;-76
2021/03/09 11:51:58;;;;;;;13.10;8.60;;;;;;;;;;5046169;28;20425;-76
2021/03/09 11:54:24;;;;;;;14.97;8.70;;;;;;;;;;5041417;28;20444;-76
2021/03/09 11:56:50;;;;;;;15.50;9.10;;;;;;;;;;5037119;28;20836;-76
2021/03/09 11:59:16;;;;;;;13.77;8.40;;;;;;;;;;5041606;28;20470;-76
2021/03/09 12:01:42;;;;;;;11.50;8.33;;;;;;;;;;5042897;28;20779;-77
2021/03/09 12:04:08;;;;;;;10.97;8.20;;;;;;;;;;5034809;28;20941;-76
2021/03/09 12:06:34;;;;;;;14.10;8.90;;;;;;;;;;5046530;28;20953;-76
2021/03/09 12:09:00;;;;;;;10.73;8.40;;;;;;;;;;5044759;28;20468;-76
2021/03/09 12:11:26;;;;;;;12.20;7.53;;;;;;;;;;5043380;28;20425;-76
2021/03/09 12:13:52;;;;;;;14.37;8.50;;;;;;;;;;5045594;28;20801;-76
2021/03/09 12:16:18;;;;;;;11.03;7.77;;;;;;;;;;5042834;28;20487;-76
2021/03/09 12:18:45;;;;;;;12.10;8.10;;;;;;;;;;5044292;28;20448;-77
2021/03/09 12:21:11;;;;;;;14.53;8.97;;;;;;;;;;5046391;28;20420;-76
2021/03/09 12:23:37;;;;;;;13.67;7.90;;;;;;;;;;5047117;28;20451;-75
2021/03/09 12:26:03;;;;;;;14.03;9.63;;;;;;;;;;5046976;28;20416;-75
2021/03/09 12:28:29;;;;;;;14.83;8.43;;;;;;;;;;5045561;28;20467;-75
2021/03/09 12:30:55;;;;;;;13.63;8.23;;;;;;;;;;5046849;28;20435;-74
2021/03/09 12:33:21;;;;;;;12.60;9.13;;;;;;;;;;5045116;28;20828;-77
2021/03/09 12:35:47;;;;;;;10.80;7.37;;;;;;;;;;5045827;28;20422;-77
2021/03/09 12:38:13;;;;;;;10.70;7.30;;;;;;;;;;5044216;28;20956;-76
2021/03/09 12:40:41;;;;;;;10.13;6.97;;;;;;;;;;5028009;28;20437;-75
2021/03/09 12:43:07;;;;;;;19.00;8.10;;;;;;;;;;5040791;28;20520;-75
2021/03/09 12:45:33;;;;;;;13.10;7.80;;;;;;;;;;5046552;28;20417;-75
2021/03/09 12:47:59;;;;;;;14.53;8.53;;;;;;;;;;5042007;28;20539;-75
2021/03/09 12:50:25;;;;;;;12.43;8.10;;;;;;;;;;5018707;28;20426;-75
2021/03/09 12:52:51;;;;;;;13.53;8.50;;;;;;;;;;5027609;28;20485;-75
2021/03/09 12:55:17;;;;;;;12.47;8.83;;;;;;;;;;5033093;28;20418;-75
2021/03/09 12:57:44;;;;;;;12.40;8.40;;;;;;;;;;5033210;28;20960;-74
2021/03/09 13:00:10;;;;;;;12.93;8.40;;;;;;;;;;5032806;28;20959;-75
2021/03/09 13:02:36;;;;;;;14.83;8.17;;;;;;;;;;5030335;28;20948;-75
2021/03/09 13:05:04;;;;;;;13.40;8.17;;;;;;;;;;5033241;28;20420;-77
2021/03/09 13:07:30;;;;;;;12.57;8.30;;;;;;;;;;5030387;28;20477;-75
2021/03/09 13:09:56;;;;;;;9.73;7.40;;;;;;;;;;5024819;28;20799;-74
2021/03/09 13:12:22;;;;;;;10.80;7.00;;;;;;;;;;5030752;28;20835;-76
2021/03/09 13:14:48;;;;;;;12.50;7.50;;;;;;;;;;5031595;28;20427;-75
2021/03/09 13:17:14;;;;;;;10.90;6.87;;;;;;;;;;5032787;28;20944;-75
2021/03/09 13:19:40;;;;;;;12.23;8.37;;;;;;;;;;5033855;28;20474;-73
2021/03/09 13:22:06;;;;;;;12.00;7.63;;;;;;;;;;5031384;28;20516;-76
2021/03/09 13:24:32;;;;;;;10.53;6.87;;;;;;;;;;5029439;28;20785;-75
2021/03/09 13:26:58;;;;;;;9.93;6.53;;;;;;;;;;5030932;28;20438;-75
2021/03/09 13:29:25;;;;;;;11.90;6.87;;;;;;;;;;5034121;28;21106;-77
2021/03/09 13:31:51;;;;;;;11.53;7.93;;;;;;;;;;5029355;28;20781;-75
2021/03/09 13:34:17;;;;;;;11.70;7.53;;;;;;;;;;5033517;28;20483;-77
2021/03/09 13:36:43;;;;;;;11.37;7.50;;;;;;;;;;5029755;28;20455;-75
2021/03/09 13:39:09;;;;;;;11.63;7.60;;;;;;;;;;5024457;28;20466;-73
2021/03/09 13:41:35;;;;;;;13.13;8.47;;;;;;;;;;5029924;28;20429;-73
2021/03/09 13:44:01;;;;;;;9.90;6.77;;;;;;;;;;5021197;28;20511;-75
2021/03/09 13:46:27;;;;;;;9.83;6.63;;;;;;;;;;5031725;28;20424;-75
2021/03/09 13:48:54;;;;;;;14.57;7.60;;;;;;;;;;5029396;28;20453;-75
2021/03/09 13:51:20;;;;;;;11.13;7.37;;;;;;;;;;5022363;28;20806;-75
2021/03/09 13:53:46;;;;;;;11.50;7.23;;;;;;;;;;5021908;28;20917;-75
2021/03/09 13:56:12;;;;;;;9.23;6.83;;;;;;;;;;5028009;28;20418;-72
2021/03/09 13:58:39;;;;;;;12.40;7.63;;;;;;;;;;5026041;28;20554;-73
2021/03/09 14:01:05;;;;;;;12.27;8.43;;;;;;;;;;5022818;28;20428;-74
2021/03/09 14:03:31;;;;;;;9.80;7.07;;;;;;;;;;5021933;28;20426;-73
2021/03/09 14:05:57;;;;;;;12.17;7.37;;;;;;;;;;5020038;28;20463;-78
2021/03/09 14:08:23;;;;;;;11.10;6.83;;;;;;;;;;5039901;28;21086;-72
2021/03/09 14:10:50;;;;;;;9.73;6.83;;;;;;;;;;5025413;28;21256;-73
2021/03/09 14:13:16;;;;;;;8.70;6.17;;;;;;;;;;5021257;23;20486;-82
2021/03/09 14:15:42;;;;;;;11.27;8.00;;;;;;;;;;5003725;28;20416;-82
2021/03/09 14:18:09;;;;;;;12.00;8.23;;;;;;;;;;4999950;28;20466;-84
2021/03/09 14:20:35;;;;;;;13.53;7.83;;;;;;;;;;5005157;28;20458;-84
2021/03/09 14:23:01;;;;;;;11.90;8.17;;;;;;;;;;5021906;28;20523;-83
2021/03/09 14:25:27;;;;;;;14.13;7.43;;;;;;;;;;5004241;28;20433;-84
2021/03/09 14:27:53;;;;;;;12.33;8.00;;;;;;;;;;5000348;28;20520;-83
2021/03/09 14:30:20;;;;;;;8.73;6.90;;;;;;;;;;4997273;28;20439;-82